Terminal Aerodrome Forecast
Issued by NWS

Home | Current Version | Previous Version | Text Only | Print | Product List | Glossary On
Versions: 1 2 3 4 5 6 7 8 9 10 11 12 13 14 15 16 17 18
000
FTUS43 KGLD 291138
TAFMCK
TAF
KMCK 291138Z 2912/3012 02014KT 6SM -RA BR OVC008
     FM291400 01017G25KT 5SM -RA BR OVC006
     FM291800 02018G26KT 3SM -SHRA OVC010
     FM300000 02015G23KT 6SM -SHRA OVC015
     FM300300 01013KT P6SM VCSH BKN015
     FM300700 35010KT P6SM BKN035=

USA.gov is the U.S. government's official web portal to all federal, state and local government web resources and services.